Time;durP1;ratioP1;P1;durP2;ratioP2;P2;SDS_P1;SDS_P2;PMS_P1;PMS_P2;Temp;Humidity;BMP_temperature;BMP_pressure;BME280_temperature;BME280_humidity;BME280_pressure;Samples;Min_cycle;Max_cycle;Signal;HPM_P1;HPM_P2
2021/08/18 00:00:29;;;;;;;1.77;0.70;;;;;;;;;;5135972;27;20035;-72
2021/08/18 00:03:14;;;;;;;;;;;;;;;;;;5121446;27;20035;-73
2021/08/18 00:05:59;;;;;;;2.10;0.73;;;;;;;;;;5135633;27;19914;-72
2021/08/18 00:08:45;;;;;;;2.97;1.00;;;;;;;;;;5135511;27;20494;-72
2021/08/18 00:11:29;;;;;;;3.25;0.75;;;;;;;;;;5135376;27;20035;-73
2021/08/18 00:14:15;;;;;;;2.70;0.85;;;;;;;;;;5135504;27;20039;-72
2021/08/18 00:16:59;;;;;;;;;;;;;;;;;;5135768;27;20031;-72
2021/08/18 00:19:43;;;;;;;3.78;0.73;;;;;;;;;;5126730;27;19914;-72
2021/08/18 00:22:27;;;;;;;;;;;;;;;;;;5135516;27;20035;-72
2021/08/18 00:25:12;;;;;;;7.75;0.93;;;;;;;;;;5135229;27;19914;-73
2021/08/18 00:27:57;;;;;;;1.20;0.65;;;;;;;;;;5135232;27;20035;-73
2021/08/18 00:30:41;;;;;;;2.20;0.85;;;;;;;;;;5135148;27;20054;-72
2021/08/18 00:33:25;;;;;;;2.72;0.98;;;;;;;;;;5134958;27;20032;-73
2021/08/18 00:36:10;;;;;;;;;;;;;;;;;;5135511;27;20039;-72
2021/08/18 00:38:54;;;;;;;1.95;0.60;;;;;;;;;;5134981;27;19915;-73
2021/08/18 00:41:38;;;;;;;1.67;0.55;;;;;;;;;;5134942;27;20024;-73
2021/08/18 00:44:22;;;;;;;1.65;0.70;;;;;;;;;;5134844;27;20360;-73
2021/08/18 00:47:07;;;;;;;1.92;0.80;;;;;;;;;;5134750;27;20035;-73
2021/08/18 00:49:52;;;;;;;2.55;0.63;;;;;;;;;;5119304;27;20043;-72
2021/08/18 00:52:37;;;;;;;1.83;1.15;;;;;;;;;;5134378;27;20035;-73
2021/08/18 00:55:21;;;;;;;;;;;;;;;;;;5135328;27;20036;-73
2021/08/18 00:58:07;;;;;;;1.80;0.70;;;;;;;;;;5134676;27;19914;-72
2021/08/18 01:00:51;;;;;;;2.25;0.80;;;;;;;;;;5134470;27;20031;-73
2021/08/18 01:03:36;;;;;;;;;;;;;;;;;;5134908;27;20487;-72
2021/08/18 01:06:20;;;;;;;1.50;0.50;;;;;;;;;;5125813;27;19918;-73
2021/08/18 01:09:04;;;;;;;;;;;;;;;;;;5134710;27;20043;-73
2021/08/18 01:11:50;;;;;;;1.10;0.60;;;;;;;;;;5134139;27;19922;-72
2021/08/18 01:14:35;;;;;;;3.72;0.70;;;;;;;;;;5134338;27;20039;-73
2021/08/18 01:17:20;;;;;;;2.63;0.38;;;;;;;;;;5134124;27;20050;-72
2021/08/18 01:20:05;;;;;;;1.50;0.50;;;;;;;;;;5125549;27;20031;-72
2021/08/18 01:22:49;;;;;;;1.70;0.63;;;;;;;;;;5133963;27;20039;-72
2021/08/18 01:25:35;;;;;;;2.88;0.50;;;;;;;;;;5134044;27;20039;-73
2021/08/18 01:28:23;;;;;;;1.80;0.90;;;;;;;;;;5133867;27;20483;-73
2021/08/18 01:31:07;;;;;;;0.90;0.60;;;;;;;;;;5118230;27;20031;-73
2021/08/18 01:33:51;;;;;;;;;;;;;;;;;;5134325;27;20031;-73
2021/08/18 01:36:37;;;;;;;1.87;0.60;;;;;;;;;;5118456;27;20271;-71
2021/08/18 01:39:22;;;;;;;2.22;0.52;;;;;;;;;;5125309;27;20367;-71
2021/08/18 01:42:07;;;;;;;1.50;0.57;;;;;;;;;;5118253;27;20031;-72
2021/08/18 01:44:52;;;;;;;3.33;0.85;;;;;;;;;;5117979;27;20039;-71
2021/08/18 01:47:36;;;;;;;0.75;0.60;;;;;;;;;;5133756;27;20031;-73
2021/08/18 01:50:22;;;;;;;0.98;0.57;;;;;;;;;;5133485;27;20039;-73
2021/08/18 01:53:07;;;;;;;1.48;0.98;;;;;;;;;;5118094;27;20369;-73
2021/08/18 01:55:52;;;;;;;3.35;0.93;;;;;;;;;;5125054;27;20035;-73
2021/08/18 01:58:37;;;;;;;2.35;0.60;;;;;;;;;;5124845;27;20035;-71
2021/08/18 02:01:22;;;;;;;3.03;0.63;;;;;;;;;;5133213;27;20031;-72
2021/08/18 02:04:06;;;;;;;0.63;0.38;;;;;;;;;;5132807;27;20376;-70
2021/08/18 02:06:50;;;;;;;1.77;0.57;;;;;;;;;;5133271;27;20043;-71
2021/08/18 02:09:35;;;;;;;1.02;0.68;;;;;;;;;;5133263;27;20039;-70
2021/08/18 02:12:20;;;;;;;0.98;0.60;;;;;;;;;;5133099;27;20035;-71
2021/08/18 02:15:09;;;;;;;2.13;0.55;;;;;;;;;;5133142;27;20470;-73
2021/08/18 02:17:54;;;;;;;1.98;0.70;;;;;;;;;;5117606;27;20023;-73
2021/08/18 02:20:38;;;;;;;1.27;0.60;;;;;;;;;;5133493;27;20035;-73
2021/08/18 02:23:23;;;;;;;1.25;0.57;;;;;;;;;;5132931;27;20379;-73
2021/08/18 02:26:09;;;;;;;2.53;0.70;;;;;;;;;;5132618;27;20196;-72
2021/08/18 02:28:54;;;;;;;1.27;0.80;;;;;;;;;;5123008;27;20035;-73
2021/08/18 02:31:38;;;;;;;2.22;0.65;;;;;;;;;;5137334;27;20031;-72
2021/08/18 02:34:22;;;;;;;1.33;0.65;;;;;;;;;;5133239;27;20035;-73
2021/08/18 02:37:07;;;;;;;1.95;0.50;;;;;;;;;;5132244;28;20039;-73
2021/08/18 02:39:51;;;;;;;1.67;0.52;;;;;;;;;;5132951;28;20511;-71
2021/08/18 02:42:36;;;;;;;0.70;0.50;;;;;;;;;;5132509;28;20043;-73
2021/08/18 02:45:21;;;;;;;1.42;0.80;;;;;;;;;;5132561;28;20054;-71
2021/08/18 02:48:06;;;;;;;1.75;0.98;;;;;;;;;;5132601;28;20495;-71
2021/08/18 02:50:50;;;;;;;1.83;0.68;;;;;;;;;;5124169;27;20039;-71
2021/08/18 02:53:35;;;;;;;0.70;0.55;;;;;;;;;;5133068;28;20044;-70
2021/08/18 02:56:19;;;;;;;2.35;0.80;;;;;;;;;;5132595;28;20028;-71
2021/08/18 02:59:04;;;;;;;1.27;0.75;;;;;;;;;;5132672;28;20032;-71
2021/08/18 03:01:48;;;;;;;3.33;0.80;;;;;;;;;;5132360;28;20035;-71
2021/08/18 03:04:32;;;;;;;;;;;;;;;;;;5132759;28;20039;-71
2021/08/18 03:07:17;;;;;;;1.13;0.52;;;;;;;;;;5132134;28;19915;-71
2021/08/18 03:10:01;;;;;;;;;;;;;;;;;;5132736;28;20035;-71
2021/08/18 03:12:46;;;;;;;0.77;0.50;;;;;;;;;;5132835;28;19914;-70
2021/08/18 03:15:30;;;;;;;1.52;0.65;;;;;;;;;;5132513;27;20368;-71
2021/08/18 03:18:14;;;;;;;1.13;0.75;;;;;;;;;;5136202;27;20475;-73
2021/08/18 03:20:59;;;;;;;0.93;0.60;;;;;;;;;;5136501;27;20490;-71
2021/08/18 03:23:43;;;;;;;2.60;0.70;;;;;;;;;;5136834;27;20039;-71
2021/08/18 03:26:28;;;;;;;1.27;0.68;;;;;;;;;;5135969;27;20490;-71
2021/08/18 03:29:12;;;;;;;;;;;;;;;;;;5136718;27;20102;-71
2021/08/18 03:31:56;;;;;;;2.30;0.80;;;;;;;;;;5120681;27;20385;-72
2021/08/18 03:34:41;;;;;;;;;;;;;;;;;;5136740;27;20047;-73
2021/08/18 03:37:25;;;;;;;1.60;0.65;;;;;;;;;;5136398;27;19930;-70
2021/08/18 03:40:10;;;;;;;1.15;0.98;;;;;;;;;;5136197;27;20036;-71
2021/08/18 03:42:54;;;;;;;4.40;0.88;;;;;;;;;;5120413;27;20031;-71
2021/08/18 03:45:39;;;;;;;3.13;0.88;;;;;;;;;;5127455;27;20364;-73
2021/08/18 03:48:24;;;;;;;1.83;0.70;;;;;;;;;;5135560;27;20039;-72
2021/08/18 03:51:08;;;;;;;;;;;;;;;;;;5127653;27;20479;-72
2021/08/18 03:53:52;;;;;;;2.80;0.80;;;;;;;;;;5135871;27;19914;-72
2021/08/18 03:56:36;;;;;;;1.58;0.70;;;;;;;;;;5135873;27;20031;-72
2021/08/18 03:59:21;;;;;;;1.05;0.85;;;;;;;;;;5135777;27;20043;-72
2021/08/18 04:02:05;;;;;;;0.95;0.65;;;;;;;;;;5135696;27;20035;-72
2021/08/18 04:04:49;;;;;;;1.33;0.77;;;;;;;;;;5135666;27;20039;-72
2021/08/18 04:07:33;;;;;;;2.17;0.60;;;;;;;;;;5120193;27;20035;-72
2021/08/18 04:10:18;;;;;;;1.65;0.95;;;;;;;;;;5135595;27;20039;-71
2021/08/18 04:13:02;;;;;;;2.70;1.05;;;;;;;;;;5135481;27;20376;-72
2021/08/18 04:15:47;;;;;;;1.52;0.73;;;;;;;;;;5135232;27;20035;-72
2021/08/18 04:18:32;;;;;;;5.10;1.00;;;;;;;;;;5135421;27;20035;-72
2021/08/18 04:21:16;;;;;;;;;;;;;;;;;;5135714;27;20039;-72
2021/08/18 04:24:01;;;;;;;10.23;0.95;;;;;;;;;;5135204;27;20368;-73
2021/08/18 04:26:46;;;;;;;1.13;0.63;;;;;;;;;;5135172;27;20047;-74
2021/08/18 04:29:30;;;;;;;4.45;0.80;;;;;;;;;;5116559;27;20040;-72
2021/08/18 04:32:15;;;;;;;;;;;;;;;;;;5099238;28;20035;-69
2021/08/18 04:34:59;;;;;;;4.68;0.82;;;;;;;;;;5118411;27;19914;-74
2021/08/18 04:37:44;;;;;;;2.30;1.08;;;;;;;;;;5127932;27;20403;-74
2021/08/18 04:40:28;;;;;;;;;;;;;;;;;;5135390;27;20035;-71
2021/08/18 04:43:13;;;;;;;2.50;1.42;;;;;;;;;;5134812;27;19930;-67
2021/08/18 04:45:57;;;;;;;5.00;1.10;;;;;;;;;;5134928;27;20491;-68
2021/08/18 04:48:41;;;;;;;3.70;0.90;;;;;;;;;;5134793;27;20043;-69
2021/08/18 04:51:26;;;;;;;3.85;1.00;;;;;;;;;;5134681;27;20039;-71
2021/08/18 04:54:11;;;;;;;6.68;1.10;;;;;;;;;;5116788;28;20032;-70
2021/08/18 04:56:55;;;;;;;2.70;0.70;;;;;;;;;;5113866;28;20031;-71
2021/08/18 04:59:39;;;;;;;1.20;0.60;;;;;;;;;;5105363;28;20031;-72
2021/08/18 05:02:23;;;;;;;5.95;0.80;;;;;;;;;;5113933;28;20028;-71
2021/08/18 05:05:09;;;;;;;3.40;0.80;;;;;;;;;;5123730;27;20032;-71
2021/08/18 05:07:56;;;;;;;0.90;0.55;;;;;;;;;;5114168;28;20032;-71
2021/08/18 05:10:41;;;;;;;3.25;0.70;;;;;;;;;;5113655;28;20047;-70
2021/08/18 05:13:25;;;;;;;3.97;0.93;;;;;;;;;;5113757;28;20036;-71
2021/08/18 05:16:09;;;;;;;2.40;1.00;;;;;;;;;;5113717;28;20035;-69
2021/08/18 05:18:55;;;;;;;12.40;1.13;;;;;;;;;;5105370;28;20384;-68
2021/08/18 05:21:39;;;;;;;1.92;0.80;;;;;;;;;;5113576;28;20415;-70
2021/08/18 05:24:23;;;;;;;6.90;1.00;;;;;;;;;;5113632;28;20031;-71
2021/08/18 05:27:07;;;;;;;4.07;0.93;;;;;;;;;;5097913;28;20043;-70
2021/08/18 05:29:52;;;;;;;3.60;1.33;;;;;;;;;;5113435;28;20047;-70
2021/08/18 05:32:38;;;;;;;0.70;0.50;;;;;;;;;;5113362;28;20479;-70
2021/08/18 05:35:24;;;;;;;1.33;0.50;;;;;;;;;;5113606;28;20043;-70
2021/08/18 05:38:08;;;;;;;4.47;0.70;;;;;;;;;;5113301;28;20035;-70
2021/08/18 05:40:52;;;;;;;3.05;0.55;;;;;;;;;;5112676;28;20036;-71
2021/08/18 05:43:37;;;;;;;3.92;0.80;;;;;;;;;;5113435;28;20040;-69
2021/08/18 05:46:21;;;;;;;;;;;;;;;;;;5113684;28;20063;-68
2021/08/18 05:49:05;;;;;;;1.40;0.70;;;;;;;;;;5113081;28;19914;-68
2021/08/18 05:51:50;;;;;;;2.60;0.90;;;;;;;;;;5102582;28;20073;-70
2021/08/18 05:54:36;;;;;;;0.55;0.40;;;;;;;;;;5112917;28;20028;-69
2021/08/18 05:57:21;;;;;;;3.65;1.02;;;;;;;;;;5113019;28;20032;-69
2021/08/18 06:00:05;;;;;;;2.67;0.80;;;;;;;;;;5112873;28;20043;-68
2021/08/18 06:02:50;;;;;;;1.80;0.70;;;;;;;;;;5099567;28;20031;-70
2021/08/18 06:05:36;;;;;;;1.98;0.63;;;;;;;;;;5112789;28;20048;-69
2021/08/18 06:08:20;;;;;;;2.58;0.70;;;;;;;;;;5097541;28;20035;-70
2021/08/18 06:11:04;;;;;;;2.28;0.60;;;;;;;;;;5112746;28;20032;-69
2021/08/18 06:13:51;;;;;;;1.40;0.88;;;;;;;;;;5112704;28;20039;-67
2021/08/18 06:16:36;;;;;;;2.13;0.80;;;;;;;;;;5112640;28;20487;-69
2021/08/18 06:19:20;;;;;;;1.35;0.85;;;;;;;;;;5112990;28;20032;-70
2021/08/18 06:22:04;;;;;;;2.10;1.08;;;;;;;;;;5112463;28;20036;-70
2021/08/18 06:24:51;;;;;;;5.82;0.80;;;;;;;;;;5112550;28;20032;-69
2021/08/18 06:27:35;;;;;;;1.85;0.50;;;;;;;;;;5097024;28;20062;-68
2021/08/18 06:30:20;;;;;;;1.00;0.60;;;;;;;;;;5112418;28;20036;-69
2021/08/18 06:33:04;;;;;;;1.20;0.68;;;;;;;;;;5112346;28;20039;-69
2021/08/18 06:35:48;;;;;;;3.17;0.60;;;;;;;;;;5112389;28;20031;-69
2021/08/18 06:38:34;;;;;;;5.68;1.02;;;;;;;;;;5112365;28;20039;-69
2021/08/18 06:41:18;;;;;;;1.02;0.65;;;;;;;;;;5112268;28;20044;-69
2021/08/18 06:44:03;;;;;;;1.75;0.85;;;;;;;;;;5112280;28;20039;-68
2021/08/18 06:46:47;;;;;;;4.20;0.80;;;;;;;;;;5112371;28;20031;-68
2021/08/18 06:49:32;;;;;;;1.48;0.70;;;;;;;;;;5112498;28;20043;-69
2021/08/18 06:52:17;;;;;;;5.45;1.05;;;;;;;;;;5116054;28;20035;-69
2021/08/18 06:55:03;;;;;;;4.93;0.90;;;;;;;;;;5116349;28;20035;-69
2021/08/18 06:57:47;;;;;;;4.40;0.82;;;;;;;;;;5116524;28;20032;-68
2021/08/18 07:00:32;;;;;;;6.40;0.90;;;;;;;;;;5116309;28;20036;-68
2021/08/18 07:03:17;;;;;;;2.60;1.40;;;;;;;;;;5101764;28;20027;-70
2021/08/18 07:06:01;;;;;;;6.40;1.08;;;;;;;;;;5116471;28;20043;-70
2021/08/18 07:08:46;;;;;;;6.20;0.80;;;;;;;;;;5116204;28;20036;-67
2021/08/18 07:11:30;;;;;;;1.67;0.63;;;;;;;;;;5116086;28;20047;-68
2021/08/18 07:14:14;;;;;;;4.15;0.77;;;;;;;;;;5116152;28;20027;-68
2021/08/18 07:16:59;;;;;;;3.38;0.68;;;;;;;;;;5107678;28;20036;-70
2021/08/18 07:19:43;;;;;;;20.63;2.67;;;;;;;;;;5115969;28;20036;-70
2021/08/18 07:22:28;;;;;;;3.30;1.00;;;;;;;;;;5116019;28;20055;-70
2021/08/18 07:25:12;;;;;;;1.55;0.93;;;;;;;;;;5115689;28;20040;-67
2021/08/18 07:27:56;;;;;;;3.92;0.98;;;;;;;;;;5115845;28;20506;-68
2021/08/18 07:30:40;;;;;;;2.33;1.38;;;;;;;;;;5115641;28;20036;-67
2021/08/18 07:33:25;;;;;;;4.70;0.63;;;;;;;;;;5100783;28;20040;-68
2021/08/18 07:36:09;;;;;;;1.40;0.63;;;;;;;;;;5115576;28;20027;-68
2021/08/18 07:38:53;;;;;;;3.95;0.80;;;;;;;;;;5122504;28;20369;-68
2021/08/18 07:41:37;;;;;;;2.45;0.82;;;;;;;;;;5121947;27;20039;-68
2021/08/18 07:44:22;;;;;;;3.67;0.95;;;;;;;;;;5136154;27;20035;-69
2021/08/18 07:47:07;;;;;;;2.00;0.82;;;;;;;;;;5130000;27;20031;-68
2021/08/18 07:49:51;;;;;;;1.65;0.55;;;;;;;;;;5115441;28;20039;-68
2021/08/18 07:52:36;;;;;;;2.08;0.80;;;;;;;;;;5099817;28;20031;-68
2021/08/18 07:55:21;;;;;;;10.80;0.73;;;;;;;;;;5115396;28;20035;-67
2021/08/18 07:58:05;;;;;;;5.22;1.08;;;;;;;;;;5115203;28;20032;-69
2021/08/18 08:00:50;;;;;;;1.63;0.85;;;;;;;;;;5115261;28;20040;-68
2021/08/18 08:03:35;;;;;;;1.77;0.68;;;;;;;;;;5098653;28;20491;-69
2021/08/18 08:06:19;;;;;;;5.10;1.02;;;;;;;;;;5115058;28;20039;-68
2021/08/18 08:09:05;;;;;;;1.35;0.75;;;;;;;;;;5114989;28;20031;-68
2021/08/18 08:11:49;;;;;;;1.38;0.80;;;;;;;;;;5122870;27;20483;-67
2021/08/18 08:14:33;;;;;;;;;;;;;;;;;;5135789;27;20035;-68
2021/08/18 08:17:17;;;;;;;1.80;1.00;;;;;;;;;;5135433;27;19930;-69
2021/08/18 08:20:02;;;;;;;;;;;;;;;;;;5135711;27;20043;-70
2021/08/18 08:22:46;;;;;;;1.30;0.70;;;;;;;;;;5135017;27;20275;-68
2021/08/18 08:25:31;;;;;;;;;;;;;;;;;;5135797;27;20035;-69
2021/08/18 08:28:16;;;;;;;3.08;0.70;;;;;;;;;;5135240;27;19919;-69
2021/08/18 08:31:00;;;;;;;;;;;;;;;;;;5135464;27;20039;-69
2021/08/18 08:33:44;;;;;;;9.30;0.90;;;;;;;;;;5134973;27;20287;-69
2021/08/18 08:36:29;;;;;;;2.60;0.70;;;;;;;;;;5134893;27;20031;-68
2021/08/18 08:39:13;;;;;;;4.35;0.80;;;;;;;;;;5135093;27;20031;-68
2021/08/18 08:41:57;;;;;;;;;;;;;;;;;;5135015;27;20035;-69
2021/08/18 08:44:42;;;;;;;3.00;0.80;;;;;;;;;;5134965;27;20413;-70
2021/08/18 08:47:27;;;;;;;1.27;0.73;;;;;;;;;;5126230;27;20039;-69
2021/08/18 08:50:12;;;;;;;8.88;1.05;;;;;;;;;;5134779;27;20039;-68
2021/08/18 08:52:56;;;;;;;6.30;1.20;;;;;;;;;;5134891;27;20057;-68
2021/08/18 08:55:41;;;;;;;3.13;0.90;;;;;;;;;;5134660;27;20039;-70
2021/08/18 08:58:25;;;;;;;4.90;1.00;;;;;;;;;;5119075;27;20036;-68
2021/08/18 09:01:11;;;;;;;2.45;1.55;;;;;;;;;;5134565;27;20387;-70
2021/08/18 09:03:56;;;;;;;8.00;1.42;;;;;;;;;;5125869;27;20384;-69
2021/08/18 09:06:40;;;;;;;3.25;0.80;;;;;;;;;;5134581;27;20039;-70
2021/08/18 09:09:24;;;;;;;;;;;;;;;;;;5135157;27;20043;-69
2021/08/18 09:12:13;;;;;;;2.90;0.80;;;;;;;;;;5134254;27;19961;-68
2021/08/18 09:15:12;;;;;;;1.45;0.82;;;;;;;;;;5134082;27;20027;-68
2021/08/18 09:17:56;;;;;;;1.40;0.63;;;;;;;;;;5134162;27;20031;-68
2021/08/18 09:20:41;;;;;;;2.17;0.93;;;;;;;;;;5118671;27;20043;-70
2021/08/18 09:23:26;;;;;;;3.20;1.20;;;;;;;;;;5118554;27;20035;-70
2021/08/18 09:26:10;;;;;;;;;;;;;;;;;;5134505;27;20039;-70
2021/08/18 09:28:57;;;;;;;2.17;1.00;;;;;;;;;;5134060;27;20412;-70
2021/08/18 09:31:41;;;;;;;5.22;0.80;;;;;;;;;;5123840;27;20039;-70
2021/08/18 09:34:25;;;;;;;;;;;;;;;;;;5134277;27;20031;-69
2021/08/18 09:37:10;;;;;;;5.20;0.90;;;;;;;;;;5133975;27;19915;-70
2021/08/18 09:39:55;;;;;;;1.80;0.90;;;;;;;;;;5133685;27;20035;-70
2021/08/18 09:42:40;;;;;;;4.72;1.25;;;;;;;;;;5133745;27;20039;-69
2021/08/18 09:45:24;;;;;;;;;;;;;;;;;;5118540;27;20035;-70
2021/08/18 09:48:09;;;;;;;5.53;1.00;;;;;;;;;;5133819;27;19921;-70
2021/08/18 09:50:58;;;;;;;5.28;0.82;;;;;;;;;;5133504;27;20284;-70
2021/08/18 09:53:44;;;;;;;1.67;0.90;;;;;;;;;;5133635;27;20039;-70
2021/08/18 09:56:39;;;;;;;3.63;0.85;;;;;;;;;;5118152;27;20035;-70
2021/08/18 09:59:23;;;;;;;3.03;0.68;;;;;;;;;;5124829;27;20031;-70
2021/08/18 10:02:08;;;;;;;;;;;;;;;;;;5133843;27;20039;-70
2021/08/18 10:04:52;;;;;;;1.73;1.03;;;;;;;;;;5133315;27;19918;-68
2021/08/18 10:07:37;;;;;;;4.38;1.13;;;;;;;;;;5133358;27;20035;-70
2021/08/18 10:10:21;;;;;;;1.85;0.80;;;;;;;;;;5133117;27;20035;-70
2021/08/18 10:13:10;;;;;;;1.10;0.80;;;;;;;;;;5133418;27;20028;-70
2021/08/18 10:15:57;;;;;;;2.03;1.20;;;;;;;;;;5133131;27;20491;-70
2021/08/18 10:18:42;;;;;;;3.15;0.88;;;;;;;;;;5133099;27;20039;-70
2021/08/18 10:21:28;;;;;;;2.53;0.85;;;;;;;;;;5123548;27;20039;-69
2021/08/18 10:24:29;;;;;;;7.47;0.82;;;;;;;;;;5133016;27;20371;-71
2021/08/18 10:27:33;;;;;;;3.85;1.35;;;;;;;;;;5132649;27;20043;-70
2021/08/18 10:30:22;;;;;;;1.60;0.63;;;;;;;;;;5132992;27;20035;-71
2021/08/18 10:33:07;;;;;;;6.45;0.80;;;;;;;;;;5132919;27;20035;-70
2021/08/18 10:35:52;;;;;;;4.43;0.80;;;;;;;;;;5132933;27;20031;-70
2021/08/18 10:38:36;;;;;;;2.78;0.90;;;;;;;;;;5112415;28;20035;-70
2021/08/18 10:41:47;;;;;;;2.92;1.13;;;;;;;;;;5117305;27;20039;-69
2021/08/18 10:44:32;;;;;;;8.70;1.05;;;;;;;;;;5089360;28;20135;-70
2021/08/18 10:47:17;;;;;;;2.58;0.70;;;;;;;;;;5132734;28;20035;-69
2021/08/18 10:50:01;;;;;;;;;;;;;;;;;;5133207;28;20039;-69
2021/08/18 10:52:46;;;;;;;6.10;0.73;;;;;;;;;;5119389;28;19918;-70
2021/08/18 10:55:31;;;;;;;2.63;0.90;;;;;;;;;;5133188;28;20031;-70
2021/08/18 10:58:36;;;;;;;1.83;0.98;;;;;;;;;;5132555;28;20483;-70
2021/08/18 11:01:57;;;;;;;2.22;0.90;;;;;;;;;;5134889;27;20043;-70
2021/08/18 11:04:42;;;;;;;2.97;1.00;;;;;;;;;;5069141;28;20532;-69
2021/08/18 11:07:46;;;;;;;1.10;0.73;;;;;;;;;;5132481;28;20039;-70
2021/08/18 11:10:31;;;;;;;4.70;0.80;;;;;;;;;;5132505;28;20106;-71
2021/08/18 11:13:16;;;;;;;2.95;0.80;;;;;;;;;;5117887;28;20032;-71
2021/08/18 11:16:05;;;;;;;1.58;0.75;;;;;;;;;;5132569;28;20040;-71
2021/08/18 11:18:51;;;;;;;1.73;0.93;;;;;;;;;;5116835;28;20024;-70
2021/08/18 11:21:36;;;;;;;0.90;0.60;;;;;;;;;;5132357;28;20039;-70
2021/08/18 11:24:21;;;;;;;2.85;0.80;;;;;;;;;;5132447;28;20515;-71
2021/08/18 11:27:05;;;;;;;;;;;;;;;;;;5132896;28;20039;-68
2021/08/18 11:29:50;;;;;;;4.83;0.70;;;;;;;;;;5139354;27;19914;-70
2021/08/18 11:32:34;;;;;;;1.67;0.93;;;;;;;;;;5132227;28;20288;-70
2021/08/18 11:35:18;;;;;;;;;;;;;;;;;;5117292;28;20388;-70
2021/08/18 11:38:04;;;;;;;9.40;1.50;;;;;;;;;;5134102;27;19914;-71
2021/08/18 11:40:49;;;;;;;2.30;1.65;;;;;;;;;;5143026;27;20035;-70
2021/08/18 11:43:38;;;;;;;8.27;1.17;;;;;;;;;;5120681;27;20039;-71
2021/08/18 11:46:24;;;;;;;3.15;0.82;;;;;;;;;;5136052;27;20391;-71
2021/08/18 11:49:10;;;;;;;1.40;1.05;;;;;;;;;;5120773;27;20039;-70
2021/08/18 11:51:54;;;;;;;1.15;0.80;;;;;;;;;;5135668;27;20032;-70
2021/08/18 11:54:39;;;;;;;4.82;0.80;;;;;;;;;;5135510;27;20392;-70
2021/08/18 11:57:23;;;;;;;0.85;0.60;;;;;;;;;;5127042;27;20491;-70
2021/08/18 12:00:08;;;;;;;3.40;0.90;;;;;;;;;;5135790;27;20471;-70
2021/08/18 12:02:53;;;;;;;3.60;0.98;;;;;;;;;;5135723;27;20038;-70
2021/08/18 12:05:37;;;;;;;1.60;0.80;;;;;;;;;;5135563;27;20039;-71
2021/08/18 12:08:32;;;;;;;2.70;0.75;;;;;;;;;;5135720;27;20407;-71
2021/08/18 12:11:16;;;;;;;1.50;0.90;;;;;;;;;;5135391;27;20043;-69
2021/08/18 12:14:07;;;;;;;2.22;0.82;;;;;;;;;;5135529;27;20031;-70
2021/08/18 12:16:58;;;;;;;2.30;1.15;;;;;;;;;;5134274;27;20031;-70
2021/08/18 12:19:47;;;;;;;4.90;0.60;;;;;;;;;;5114900;28;20364;-70
2021/08/18 12:22:33;;;;;;;2.60;0.98;;;;;;;;;;5114749;28;20040;-71
2021/08/18 12:25:17;;;;;;;3.10;0.98;;;;;;;;;;5105865;28;20031;-70
2021/08/18 12:28:11;;;;;;;6.07;1.40;;;;;;;;;;5114661;28;20044;-70
2021/08/18 12:30:57;;;;;;;3.38;0.82;;;;;;;;;;5114661;28;20036;-71
2021/08/18 12:33:41;;;;;;;2.25;0.75;;;;;;;;;;5114731;28;20040;-69
2021/08/18 12:36:28;;;;;;;5.43;0.80;;;;;;;;;;5114518;28;20373;-71
2021/08/18 12:39:13;;;;;;;2.70;0.90;;;;;;;;;;5114527;28;20036;-71
2021/08/18 12:41:57;;;;;;;3.00;0.77;;;;;;;;;;5114620;28;20028;-71
2021/08/18 12:44:42;;;;;;;1.00;0.60;;;;;;;;;;5114457;28;20031;-71
2021/08/18 12:47:31;;;;;;;1.67;0.70;;;;;;;;;;5114328;28;20384;-70
2021/08/18 12:50:32;;;;;;;1.80;0.80;;;;;;;;;;5114100;28;20376;-71
2021/08/18 12:53:17;;;;;;;0.95;0.70;;;;;;;;;;5114085;28;20031;-69
2021/08/18 12:56:01;;;;;;;1.02;0.65;;;;;;;;;;5114071;28;20031;-69
2021/08/18 12:58:47;;;;;;;1.73;0.90;;;;;;;;;;5120768;27;20027;-69
2021/08/18 13:01:32;;;;;;;2.88;1.10;;;;;;;;;;5140191;27;20047;-69
2021/08/18 13:04:16;;;;;;;1.60;0.98;;;;;;;;;;5125874;27;20035;-71
2021/08/18 13:07:00;;;;;;;1.52;0.75;;;;;;;;;;5134651;27;20039;-70
2021/08/18 13:09:45;;;;;;;4.18;1.05;;;;;;;;;;5134538;27;20039;-70
2021/08/18 13:12:30;;;;;;;5.43;1.42;;;;;;;;;;5134048;27;20514;-70
2021/08/18 13:15:15;;;;;;;3.08;1.00;;;;;;;;;;5134359;27;20028;-70
2021/08/18 13:17:59;;;;;;;3.03;1.00;;;;;;;;;;5134550;27;20035;-70
2021/08/18 13:20:44;;;;;;;2.83;0.65;;;;;;;;;;5125576;27;20031;-70
2021/08/18 13:23:32;;;;;;;2.35;0.90;;;;;;;;;;5133966;27;20031;-70
2021/08/18 13:26:17;;;;;;;1.45;0.75;;;;;;;;;;5122246;27;20039;-70
2021/08/18 13:29:01;;;;;;;2.58;0.73;;;;;;;;;;5133829;27;20039;-70
2021/08/18 13:31:46;;;;;;;2.35;0.90;;;;;;;;;;5108896;27;20035;-70
2021/08/18 13:34:30;;;;;;;2.30;0.90;;;;;;;;;;5133669;27;20039;-70
2021/08/18 13:37:15;;;;;;;3.00;1.27;;;;;;;;;;5133860;27;20031;-70
2021/08/18 13:39:59;;;;;;;1.90;0.82;;;;;;;;;;5125170;27;20039;-70
2021/08/18 13:42:43;;;;;;;2.70;0.90;;;;;;;;;;5133773;27;20031;-69
2021/08/18 13:45:28;;;;;;;1.50;0.90;;;;;;;;;;5124780;27;20043;-70
2021/08/18 13:48:13;;;;;;;3.38;1.00;;;;;;;;;;5133797;27;20039;-70
2021/08/18 13:50:57;;;;;;;2.53;0.85;;;;;;;;;;5133556;27;20035;-70
2021/08/18 13:53:42;;;;;;;4.30;0.93;;;;;;;;;;5110549;27;20035;-70
2021/08/18 13:56:26;;;;;;;1.40;0.70;;;;;;;;;;5117980;27;20023;-69
2021/08/18 13:59:11;;;;;;;3.10;0.90;;;;;;;;;;5133572;27;20031;-69
2021/08/18 14:01:56;;;;;;;2.20;0.80;;;;;;;;;;5133235;27;20035;-69
2021/08/18 14:04:40;;;;;;;4.70;1.10;;;;;;;;;;5110272;27;20031;-69
2021/08/18 14:07:25;;;;;;;6.30;0.80;;;;;;;;;;5133382;27;20042;-69
2021/08/18 14:10:09;;;;;;;2.25;1.20;;;;;;;;;;5133279;27;20035;-69
2021/08/18 14:12:54;;;;;;;1.65;0.93;;;;;;;;;;5133136;27;20047;-71
2021/08/18 14:15:40;;;;;;;1.88;0.88;;;;;;;;;;5133270;27;20031;-70
2021/08/18 14:18:24;;;;;;;4.88;1.10;;;;;;;;;;5133203;27;20039;-70
2021/08/18 14:21:09;;;;;;;3.90;1.10;;;;;;;;;;5133065;27;20483;-69
2021/08/18 14:23:54;;;;;;;1.63;0.93;;;;;;;;;;5124556;27;20038;-69
2021/08/18 14:26:38;;;;;;;5.78;0.95;;;;;;;;;;5132966;27;20038;-69
2021/08/18 14:29:23;;;;;;;3.08;0.60;;;;;;;;;;5121878;27;20043;-71
2021/08/18 14:32:07;;;;;;;2.03;0.82;;;;;;;;;;5132843;27;20039;-70
2021/08/18 14:34:52;;;;;;;1.55;0.68;;;;;;;;;;5133099;27;20031;-70
2021/08/18 14:37:36;;;;;;;13.93;1.05;;;;;;;;;;5132978;27;20031;-71
2021/08/18 14:40:21;;;;;;;3.33;0.60;;;;;;;;;;5124336;27;20039;-71
2021/08/18 14:43:05;;;;;;;2.72;1.27;;;;;;;;;;5132658;28;20031;-71
2021/08/18 14:45:50;;;;;;;1.65;0.90;;;;;;;;;;5132806;28;20039;-71
2021/08/18 14:48:34;;;;;;;2.75;0.82;;;;;;;;;;5132601;28;20039;-68
2021/08/18 14:51:18;;;;;;;2.58;1.08;;;;;;;;;;5132561;28;20379;-71
2021/08/18 14:54:02;;;;;;;1.52;0.80;;;;;;;;;;5117234;28;20031;-71
2021/08/18 14:56:47;;;;;;;4.90;0.98;;;;;;;;;;5132765;28;20031;-69
2021/08/18 14:59:32;;;;;;;1.30;0.70;;;;;;;;;;5132834;28;20032;-71
2021/08/18 15:02:17;;;;;;;1.45;0.82;;;;;;;;;;5132483;28;20384;-70
2021/08/18 15:05:03;;;;;;;2.42;0.85;;;;;;;;;;5132675;28;20363;-72
2021/08/18 15:07:47;;;;;;;3.92;0.90;;;;;;;;;;5132876;28;20035;-69
2021/08/18 15:10:32;;;;;;;1.65;1.00;;;;;;;;;;5123839;27;20035;-71
2021/08/18 15:13:16;;;;;;;2.25;0.70;;;;;;;;;;5136159;27;20031;-71
2021/08/18 15:16:00;;;;;;;3.25;0.90;;;;;;;;;;5136716;27;20035;-71
2021/08/18 15:18:44;;;;;;;2.35;1.20;;;;;;;;;;5121088;27;20039;-71
2021/08/18 15:21:29;;;;;;;1.20;0.77;;;;;;;;;;5136606;27;20043;-69
2021/08/18 15:24:13;;;;;;;4.20;0.90;;;;;;;;;;5136517;27;20043;-69
2021/08/18 15:26:58;;;;;;;4.15;1.08;;;;;;;;;;5137090;27;20360;-71
2021/08/18 15:29:43;;;;;;;4.30;1.75;;;;;;;;;;5136355;27;20237;-71
2021/08/18 15:32:28;;;;;;;3.42;0.90;;;;;;;;;;5136255;27;20372;-71
2021/08/18 15:35:12;;;;;;;;;;;;;;;;;;5137072;27;20371;-71
2021/08/18 15:37:56;;;;;;;;;;;;;;;;;;5136766;27;19914;-69
2021/08/18 15:40:41;;;;;;;4.38;1.15;;;;;;;;;;5136275;27;19915;-69
2021/08/18 15:43:27;;;;;;;2.35;0.95;;;;;;;;;;5136000;27;20038;-71
2021/08/18 15:46:13;;;;;;;1.20;0.60;;;;;;;;;;5136420;27;20043;-71
2021/08/18 15:48:57;;;;;;;4.05;1.20;;;;;;;;;;5135809;27;20031;-71
2021/08/18 15:51:41;;;;;;;3.47;0.85;;;;;;;;;;5135912;27;20043;-69
2021/08/18 15:54:26;;;;;;;;;;;;;;;;;;5136345;27;20031;-68
2021/08/18 15:57:11;;;;;;;1.38;0.57;;;;;;;;;;5136155;27;19915;-69
2021/08/18 15:59:55;;;;;;;1.13;0.82;;;;;;;;;;5135828;27;20039;-69
2021/08/18 16:02:40;;;;;;;2.83;0.70;;;;;;;;;;5135792;27;20035;-69
2021/08/18 16:05:26;;;;;;;3.47;1.00;;;;;;;;;;5120337;27;20039;-71
2021/08/18 16:08:10;;;;;;;;;;;;;;;;;;5113044;27;20384;-68
2021/08/18 16:10:55;;;;;;;7.25;1.25;;;;;;;;;;5135507;27;19914;-70
2021/08/18 16:13:39;;;;;;;5.05;1.00;;;;;;;;;;5135659;27;20376;-71
2021/08/18 16:16:23;;;;;;;4.63;1.10;;;;;;;;;;5135500;27;20483;-69
2021/08/18 16:19:08;;;;;;;3.53;1.80;;;;;;;;;;5135487;27;20028;-70
2021/08/18 16:21:53;;;;;;;2.78;0.85;;;;;;;;;;5135566;27;20035;-68
2021/08/18 16:24:37;;;;;;;2.38;0.93;;;;;;;;;;5134565;27;20031;-69
2021/08/18 16:27:23;;;;;;;2.95;0.70;;;;;;;;;;5135262;27;20043;-70
2021/08/18 16:30:08;;;;;;;3.50;1.10;;;;;;;;;;5135231;27;20039;-71
2021/08/18 16:32:53;;;;;;;1.13;0.82;;;;;;;;;;5135164;27;20043;-69
2021/08/18 16:35:38;;;;;;;3.10;0.80;;;;;;;;;;5126495;27;20483;-70
2021/08/18 16:38:24;;;;;;;4.55;1.02;;;;;;;;;;5126542;27;20039;-69
2021/08/18 16:41:08;;;;;;;2.33;1.00;;;;;;;;;;5105891;27;20499;-71